createdAt,value
2023-05-20T00:00:02.125Z,13.04
2023-05-20T00:02:30.418Z,13.10
2023-05-20T00:04:58.963Z,13.09
2023-05-20T00:07:27.572Z,13.12
2023-05-20T00:09:55.864Z,13.11
2023-05-20T00:12:24.062Z,13.13
2023-05-20T00:14:55.931Z,13.15
2023-05-20T00:17:26.646Z,13.14
2023-05-20T00:19:54.857Z,13.11
2023-05-20T00:22:23.446Z,13.14
2023-05-20T00:24:51.598Z,13.16
2023-05-20T00:27:19.717Z,13.16
2023-05-20T00:29:48.151Z,13.17
2023-05-20T00:32:17.887Z,13.25
2023-05-20T00:34:46.078Z,13.18
2023-05-20T00:37:14.133Z,13.17
2023-05-20T00:39:42.411Z,13.16
2023-05-20T00:42:10.513Z,13.15
2023-05-20T00:44:39.106Z,13.12
2023-05-20T00:47:07.903Z,13.05
2023-05-20T00:49:37.693Z,13.14
2023-05-20T00:52:06.870Z,13.13
2023-05-20T00:54:35.567Z,13.13
2023-05-20T00:57:04.809Z,13.09
2023-05-20T00:59:33.053Z,13.10
2023-05-20T01:02:02.030Z,13.04
2023-05-20T01:04:31.664Z,13.08
2023-05-20T01:07:03.576Z,13.08
2023-05-20T01:09:32.399Z,13.06
2023-05-20T01:12:07.053Z,13.07
2023-05-20T01:14:39.323Z,13.05
2023-05-20T01:17:11.242Z,13.05
2023-05-20T01:19:44.137Z,13.04
2023-05-20T01:22:15.293Z,13.09
2023-05-20T01:24:48.551Z,13.09
2023-05-20T01:27:16.929Z,13.08
2023-05-20T01:29:46.096Z,13.05
2023-05-20T01:32:18.888Z,13.07
2023-05-20T01:34:50.052Z,13.09
2023-05-20T01:37:19.867Z,13.07
2023-05-20T01:39:52.065Z,13.11
2023-05-20T01:42:21.930Z,13.12
2023-05-20T01:44:50.134Z,13.03
2023-05-20T01:47:18.251Z,13.08
2023-05-20T01:49:47.855Z,13.05
2023-05-20T01:52:16.212Z,13.08
2023-05-20T01:54:51.041Z,13.11
2023-05-20T01:57:21.884Z,13.11
2023-05-20T01:59:50.370Z,13.06
2023-05-20T02:02:19.015Z,13.04
2023-05-20T02:04:48.973Z,12.93
2023-05-20T02:07:18.850Z,12.94
2023-05-20T02:09:47.449Z,12.91
2023-05-20T02:12:17.480Z,12.88
2023-05-20T02:14:49.383Z,12.83
2023-05-20T02:17:18.549Z,12.75
2023-05-20T02:19:47.448Z,12.65
2023-05-20T02:22:15.964Z,12.71
2023-05-20T02:24:44.549Z,12.68
2023-05-20T02:27:13.268Z,12.67
2023-05-20T02:29:41.424Z,12.60
2023-05-20T02:32:11.356Z,12.52
2023-05-20T02:34:39.589Z,12.59
2023-05-20T02:37:07.845Z,12.58
2023-05-20T02:39:36.038Z,12.50
2023-05-20T02:42:04.783Z,12.42
2023-05-20T02:44:32.996Z,12.47
2023-05-20T02:47:01.171Z,12.46
2023-05-20T02:49:30.716Z,12.42
2023-05-20T02:51:58.974Z,12.41
2023-05-20T02:54:27.096Z,12.37
2023-05-20T02:56:55.272Z,12.20
2023-05-20T02:59:23.425Z,12.24
2023-05-20T03:01:51.688Z,12.29
2023-05-20T03:04:21.803Z,12.25
2023-05-20T03:06:52.257Z,12.22
2023-05-20T03:09:20.753Z,12.24
2023-05-20T03:11:49.764Z,12.24
2023-05-20T03:14:18.088Z,12.25
2023-05-20T03:16:46.480Z,12.31
2023-05-20T03:19:14.750Z,12.25
2023-05-20T03:21:43.908Z,12.24
2023-05-20T03:24:13.476Z,12.14
2023-05-20T03:26:43.347Z,12.24
2023-05-20T03:29:12.089Z,12.21
2023-05-20T03:31:40.410Z,12.23
2023-05-20T03:34:09.457Z,12.14
2023-05-20T03:36:37.632Z,12.18
2023-05-20T03:39:05.816Z,12.20
2023-05-20T03:41:35.489Z,12.21
2023-05-20T03:44:03.620Z,12.20
2023-05-20T03:46:32.779Z,12.06
2023-05-20T03:49:01.903Z,12.23
2023-05-20T03:51:30.113Z,12.22
2023-05-20T03:53:58.463Z,12.18
2023-05-20T03:56:26.595Z,12.16
2023-05-20T03:58:56.566Z,12.19
2023-05-20T04:01:25.789Z,12.12
2023-05-20T04:03:54.559Z,12.16
2023-05-20T04:06:23.056Z,12.15
2023-05-20T04:08:53.030Z,12.13
2023-05-20T04:11:21.601Z,12.10
2023-05-20T04:13:49.915Z,12.12
2023-05-20T04:16:20.096Z,12.12
2023-05-20T04:18:48.581Z,12.08
2023-05-20T04:21:16.867Z,12.07
2023-05-20T04:23:44.899Z,12.08
2023-05-20T04:26:13.138Z,12.06
2023-05-20T04:28:42.171Z,12.07
2023-05-20T04:31:10.809Z,12.05
2023-05-20T04:33:40.318Z,12.08
2023-05-20T04:36:12.229Z,12.09
2023-05-20T04:38:42.354Z,11.92
2023-05-20T04:41:11.136Z,12.16
2023-05-20T04:43:40.444Z,12.18
2023-05-20T04:46:08.938Z,12.26
2023-05-20T04:48:37.490Z,12.31
2023-05-20T04:51:07.332Z,12.30
2023-05-20T04:53:36.104Z,12.19
2023-05-20T04:56:04.955Z,12.30
2023-05-20T04:58:34.640Z,12.38
2023-05-20T05:01:03.059Z,12.50
2023-05-20T05:03:31.677Z,12.58
2023-05-20T05:06:00.255Z,12.70
2023-05-20T05:08:29.777Z,12.78
2023-05-20T05:10:58.047Z,12.84
2023-05-20T05:13:26.232Z,12.83
2023-05-20T05:16:00.819Z,13.03
2023-05-20T05:18:29.142Z,13.17
2023-05-20T05:21:01.986Z,13.26
2023-05-20T05:23:31.706Z,13.24
2023-05-20T05:26:00.118Z,13.26
2023-05-20T05:28:28.539Z,13.21
2023-05-20T05:30:57.414Z,13.25
2023-05-20T05:33:25.740Z,13.38
2023-05-20T05:35:54.047Z,13.44
2023-05-20T05:38:22.326Z,13.50
2023-05-20T05:40:51.958Z,13.59
2023-05-20T05:43:20.142Z,13.58
2023-05-20T05:45:48.520Z,13.64
2023-05-20T05:48:16.886Z,13.68
2023-05-20T05:50:46.983Z,13.75
2023-05-20T05:53:16.102Z,13.74
2023-05-20T05:55:44.392Z,13.66
2023-05-20T05:58:13.996Z,13.78
2023-05-20T06:00:42.530Z,13.83
2023-05-20T06:03:11.044Z,13.87
2023-05-20T06:05:39.665Z,13.92
2023-05-20T06:08:08.260Z,13.95
2023-05-20T06:10:36.524Z,13.99
2023-05-20T06:13:05.037Z,14.05
2023-05-20T06:15:35.206Z,14.11
2023-05-20T06:18:03.787Z,14.27
2023-05-20T06:20:32.111Z,14.27
2023-05-20T06:23:00.588Z,14.41
2023-05-20T06:25:29.431Z,14.45
2023-05-20T06:27:58.091Z,14.50
2023-05-20T06:30:26.506Z,14.54
2023-05-20T06:32:56.196Z,14.62
2023-05-20T06:35:24.796Z,14.62
2023-05-20T06:37:53.102Z,14.77
2023-05-20T06:40:21.441Z,14.68
2023-05-20T06:42:49.763Z,14.81
2023-05-20T06:45:18.168Z,14.93
2023-05-20T06:47:48.128Z,15.00
2023-05-20T06:50:17.969Z,15.07
2023-05-20T06:52:46.420Z,15.30
2023-05-20T06:55:14.696Z,15.26
2023-05-20T06:57:43.309Z,15.27
2023-05-20T07:00:13.856Z,15.47
2023-05-20T07:02:43.609Z,15.57
2023-05-20T07:05:12.869Z,15.73
2023-05-20T07:07:42.638Z,15.66
2023-05-20T07:10:11.388Z,15.70
2023-05-20T07:12:40.089Z,15.62
2023-05-20T07:15:10.059Z,15.64
2023-05-20T07:17:38.660Z,15.89
2023-05-20T07:20:08.389Z,15.98
2023-05-20T07:22:37.059Z,16.10
2023-05-20T07:25:07.612Z,16.03
2023-05-20T07:27:36.475Z,15.93
2023-05-20T07:30:05.095Z,16.09
2023-05-20T07:32:33.398Z,16.26
2023-05-20T07:35:01.828Z,16.33
2023-05-20T07:37:30.381Z,16.38
2023-05-20T07:39:58.579Z,16.29
2023-05-20T07:42:28.630Z,16.24
2023-05-20T07:44:56.933Z,16.45
2023-05-20T07:47:25.349Z,16.39
2023-05-20T07:49:53.633Z,16.46
2023-05-20T07:52:22.099Z,16.46
2023-05-20T07:54:50.364Z,16.74
2023-05-20T07:57:18.708Z,16.81
2023-05-20T07:59:48.212Z,16.89
2023-05-20T08:02:17.768Z,16.66
2023-05-20T08:04:46.034Z,16.60
2023-05-20T08:07:14.400Z,16.77
2023-05-20T08:09:42.565Z,16.84
2023-05-20T08:12:10.729Z,16.98
2023-05-20T08:14:39.546Z,17.11
2023-05-20T08:17:09.451Z,17.24
2023-05-20T08:19:37.963Z,17.21
2023-05-20T08:22:08.218Z,17.52
2023-05-20T08:24:36.447Z,17.33
2023-05-20T08:27:05.274Z,17.50
2023-05-20T08:29:33.571Z,17.70
2023-05-20T08:32:01.853Z,17.69
2023-05-20T08:34:31.457Z,17.79
2023-05-20T08:36:59.838Z,17.95
2023-05-20T08:39:28.692Z,17.99
2023-05-20T08:41:57.049Z,17.90
2023-05-20T08:44:27.521Z,18.04
2023-05-20T08:46:56.894Z,18.21
2023-05-20T08:49:25.371Z,18.24
2023-05-20T08:51:55.167Z,18.07
2023-05-20T08:54:26.794Z,18.05
2023-05-20T08:56:56.051Z,18.64
2023-05-20T08:59:24.779Z,18.81
2023-05-20T09:01:53.233Z,19.13
2023-05-20T09:04:21.367Z,19.04
2023-05-20T09:06:52.720Z,19.02
2023-05-20T09:09:22.920Z,18.70
2023-05-20T09:11:51.298Z,18.55
2023-05-20T09:14:19.670Z,18.57
2023-05-20T09:16:49.386Z,18.79
2023-05-20T09:19:17.799Z,18.73
2023-05-20T09:21:48.637Z,18.43
2023-05-20T09:24:16.771Z,18.67
2023-05-20T09:26:46.997Z,19.07
2023-05-20T09:29:15.522Z,19.09
2023-05-20T09:31:45.315Z,19.19
2023-05-20T09:34:14.665Z,18.81
2023-05-20T09:36:44.868Z,18.87
2023-05-20T09:39:16.069Z,18.81
2023-05-20T09:41:55.225Z,18.89
2023-05-20T09:44:24.125Z,19.41
2023-05-20T09:46:53.439Z,19.58
2023-05-20T09:49:24.168Z,19.72
2023-05-20T09:51:54.519Z,19.97
2023-05-20T09:54:24.931Z,19.59
2023-05-20T09:56:55.084Z,19.55
2023-05-20T09:59:23.891Z,19.95
2023-05-20T10:01:52.388Z,19.94
2023-05-20T10:04:22.872Z,20.22
2023-05-20T10:07:33.968Z,20.34
2023-05-20T10:10:19.055Z,20.36
2023-05-20T10:13:01.409Z,19.74
2023-05-20T10:15:40.494Z,19.82
2023-05-20T10:18:19.250Z,20.01
2023-05-20T10:20:49.062Z,19.68
2023-05-20T10:23:24.354Z,19.76
2023-05-20T10:25:53.862Z,19.71
2023-05-20T10:28:36.445Z,19.89
2023-05-20T10:31:16.244Z,19.71
2023-05-20T10:33:45.745Z,20.13
2023-05-20T10:36:26.324Z,19.93
2023-05-20T10:38:55.525Z,20.19
2023-05-20T10:41:26.800Z,20.31
2023-05-20T10:44:03.655Z,20.00
2023-05-20T10:46:40.102Z,19.84
2023-05-20T10:49:24.172Z,20.00
2023-05-20T10:51:56.355Z,20.29
2023-05-20T10:54:25.132Z,20.26
2023-05-20T10:56:54.686Z,20.14
2023-05-20T10:59:24.626Z,20.22
2023-05-20T11:01:53.034Z,20.12
2023-05-20T11:04:21.956Z,20.02
2023-05-20T11:06:56.231Z,20.01
2023-05-20T11:09:24.885Z,19.92
2023-05-20T11:11:55.696Z,19.78
2023-05-20T11:14:25.513Z,19.87
2023-05-20T11:16:54.771Z,20.16
2023-05-20T11:19:23.325Z,20.20
2023-05-20T11:21:51.618Z,20.19
2023-05-20T11:24:26.040Z,20.59
2023-05-20T11:26:54.476Z,20.48
2023-05-20T11:29:24.505Z,20.78
2023-05-20T11:31:53.289Z,20.97
2023-05-20T11:34:25.580Z,20.33
2023-05-20T11:36:59.062Z,20.19
2023-05-20T11:39:30.938Z,20.44
2023-05-20T11:41:59.774Z,20.92
2023-05-20T11:44:29.406Z,21.05
2023-05-20T11:47:02.368Z,20.79
2023-05-20T11:49:31.016Z,20.80
2023-05-20T11:51:59.592Z,20.77
2023-05-20T11:54:27.696Z,21.08
2023-05-20T11:56:57.208Z,20.77
2023-05-20T11:59:26.068Z,20.83
2023-05-20T12:01:55.706Z,21.26
2023-05-20T12:04:24.314Z,21.23
2023-05-20T12:06:53.600Z,21.18
2023-05-20T12:09:22.674Z,20.91
2023-05-20T12:11:51.143Z,21.08
2023-05-20T12:14:19.580Z,21.43
2023-05-20T12:16:47.918Z,21.35
2023-05-20T12:19:17.710Z,21.01
2023-05-20T12:21:47.387Z,21.03
2023-05-20T12:24:15.756Z,20.77
2023-05-20T12:26:44.326Z,21.01
2023-05-20T12:29:12.937Z,20.96
2023-05-20T12:31:41.468Z,21.26
2023-05-20T12:34:09.645Z,21.29
2023-05-20T12:36:39.607Z,21.21
2023-05-20T12:39:07.936Z,21.42
2023-05-20T12:41:36.442Z,21.09
2023-05-20T12:44:05.016Z,20.98
2023-05-20T12:46:33.383Z,20.80
2023-05-20T12:49:01.850Z,21.08
2023-05-20T12:51:30.175Z,21.31
2023-05-20T12:53:59.943Z,21.30
2023-05-20T12:56:28.273Z,21.80
2023-05-20T12:58:56.715Z,21.84
2023-05-20T13:01:25.562Z,21.96
2023-05-20T13:03:54.267Z,21.60
2023-05-20T13:06:22.521Z,21.67
2023-05-20T13:08:51.056Z,21.69
2023-05-20T13:11:21.942Z,21.15
2023-05-20T13:13:50.293Z,21.23
2023-05-20T13:16:19.013Z,21.21
2023-05-20T13:18:47.590Z,21.08
2023-05-20T13:21:15.986Z,21.27
2023-05-20T13:23:44.547Z,21.49
2023-05-20T13:26:13.027Z,21.98
2023-05-20T13:28:43.169Z,22.01
2023-05-20T13:31:11.483Z,21.87
2023-05-20T13:33:40.011Z,21.94
2023-05-20T13:36:08.913Z,21.84
2023-05-20T13:38:37.638Z,21.74
2023-05-20T13:41:06.461Z,21.73
2023-05-20T13:43:34.683Z,21.84
2023-05-20T13:46:04.761Z,21.53
2023-05-20T13:48:33.521Z,21.80
2023-05-20T13:51:02.087Z,22.13
2023-05-20T13:53:30.676Z,22.24
2023-05-20T13:55:59.541Z,22.16
2023-05-20T13:58:27.736Z,22.34
2023-05-20T14:00:55.951Z,22.08
2023-05-20T14:03:25.714Z,22.08
2023-05-20T14:05:54.750Z,22.33
2023-05-20T14:08:23.261Z,22.26
2023-05-20T14:10:54.954Z,22.38
2023-05-20T14:13:23.588Z,22.36
2023-05-20T14:15:52.951Z,22.45
2023-05-20T14:18:22.174Z,22.26
2023-05-20T14:20:52.010Z,22.24
2023-05-20T14:23:20.278Z,22.17
2023-05-20T14:25:48.793Z,21.79
2023-05-20T14:28:17.559Z,22.04
2023-05-20T14:30:45.947Z,21.91
2023-05-20T14:33:14.736Z,21.85
2023-05-20T14:35:43.472Z,21.94
2023-05-20T14:38:13.110Z,22.07
2023-05-20T14:40:41.852Z,22.21
2023-05-20T14:43:10.288Z,22.21
2023-05-20T14:45:38.565Z,22.17
2023-05-20T14:48:07.492Z,22.20
2023-05-20T14:50:36.088Z,22.17
2023-05-20T14:53:04.645Z,22.37
2023-05-20T14:55:34.339Z,22.65
2023-05-20T14:58:02.933Z,22.94
2023-05-20T15:00:32.967Z,23.01
2023-05-20T15:03:01.766Z,23.01
2023-05-20T15:05:30.261Z,23.10
2023-05-20T15:07:58.605Z,23.13
2023-05-20T15:10:27.133Z,23.13
2023-05-20T15:12:57.360Z,23.10
2023-05-20T15:15:26.290Z,23.46
2023-05-20T15:17:55.474Z,23.63
2023-05-20T15:20:24.410Z,23.32
2023-05-20T15:22:52.763Z,23.25
2023-05-20T15:25:21.411Z,23.54
2023-05-20T15:27:50.103Z,23.92
2023-05-20T15:30:20.049Z,24.89
2023-05-20T15:32:48.651Z,25.34
2023-05-20T15:35:17.537Z,24.93
2023-05-20T15:37:45.935Z,25.48
2023-05-20T15:40:14.596Z,25.30
2023-05-20T15:42:43.200Z,24.51
2023-05-20T15:45:12.455Z,24.60
2023-05-20T15:47:43.483Z,25.08
2023-05-20T15:50:12.957Z,24.45
2023-05-20T15:52:42.222Z,24.24
2023-05-20T15:55:11.698Z,23.90
2023-05-20T15:57:40.789Z,23.66
2023-05-20T16:00:10.980Z,23.43
2023-05-20T16:02:40.611Z,23.07
2023-05-20T16:05:11.070Z,23.11
2023-05-20T16:07:39.696Z,23.00
2023-05-20T16:10:09.675Z,23.00
2023-05-20T16:12:39.613Z,23.20
2023-05-20T16:15:10.061Z,22.93
2023-05-20T16:17:38.863Z,23.03
2023-05-20T16:20:10.234Z,23.05
2023-05-20T16:22:38.931Z,22.84
2023-05-20T16:25:08.035Z,22.69
2023-05-20T16:27:36.727Z,22.48
2023-05-20T16:30:08.389Z,22.27
2023-05-20T16:32:36.630Z,22.12
2023-05-20T16:35:05.214Z,22.21
2023-05-20T16:37:37.308Z,21.98
2023-05-20T16:40:07.520Z,22.13
2023-05-20T16:42:35.897Z,21.98
2023-05-20T16:45:04.743Z,21.99
2023-05-20T16:47:34.346Z,21.92
2023-05-20T16:50:02.714Z,21.92
2023-05-20T16:52:30.948Z,21.89
2023-05-20T16:55:03.644Z,22.01
2023-05-20T16:57:32.792Z,22.05
2023-05-20T17:00:01.414Z,22.08
2023-05-20T17:02:30.077Z,22.03
2023-05-20T17:04:59.688Z,22.11
2023-05-20T17:07:28.096Z,22.15
2023-05-20T17:09:56.286Z,22.12
2023-05-20T17:12:26.353Z,22.02
2023-05-20T17:14:55.928Z,22.09
2023-05-20T17:17:24.302Z,22.18
2023-05-20T17:19:52.978Z,22.17
2023-05-20T17:22:21.524Z,22.10
2023-05-20T17:24:51.257Z,22.01
2023-05-20T17:27:19.748Z,21.95
2023-05-20T17:29:50.014Z,21.95
2023-05-20T17:32:18.819Z,21.87
2023-05-20T17:34:47.181Z,21.78
2023-05-20T17:37:16.031Z,21.77
2023-05-20T17:39:44.561Z,21.68
2023-05-20T17:42:12.913Z,21.66
2023-05-20T17:44:41.541Z,21.59
2023-05-20T17:47:13.556Z,21.43
2023-05-20T17:49:41.884Z,21.49
2023-05-20T17:52:10.491Z,21.35
2023-05-20T17:54:39.283Z,21.36
2023-05-20T17:57:08.478Z,21.36
2023-05-20T17:59:39.377Z,21.24
2023-05-20T18:02:08.617Z,21.15
2023-05-20T18:04:38.962Z,21.11
2023-05-20T18:07:07.966Z,21.05
2023-05-20T18:09:36.879Z,20.94
2023-05-20T18:12:05.755Z,20.86
2023-05-20T18:14:35.666Z,20.81
2023-05-20T18:17:04.200Z,20.60
2023-05-20T18:19:34.057Z,20.65
2023-05-20T18:22:03.879Z,20.61
2023-05-20T18:24:32.253Z,20.50
2023-05-20T18:27:01.199Z,20.43
2023-05-20T18:29:29.689Z,20.37
2023-05-20T18:31:58.160Z,20.33
2023-05-20T18:34:26.870Z,20.12
2023-05-20T18:36:55.279Z,20.08
2023-05-20T18:39:25.176Z,20.12
2023-05-20T18:41:53.634Z,20.08
2023-05-20T18:44:23.544Z,20.11
2023-05-20T18:46:52.090Z,20.05
2023-05-20T18:49:20.645Z,19.92
2023-05-20T18:51:49.611Z,19.86
2023-05-20T18:54:18.125Z,19.79
2023-05-20T18:56:49.299Z,19.67
2023-05-20T18:59:18.412Z,19.68
2023-05-20T19:01:47.194Z,19.46
2023-05-20T19:04:16.372Z,19.50
2023-05-20T19:06:45.088Z,19.48
2023-05-20T19:09:13.482Z,19.47
2023-05-20T19:11:42.006Z,19.44
2023-05-20T19:14:11.982Z,19.41
2023-05-20T19:16:41.359Z,19.47
2023-05-20T19:19:10.356Z,19.46
2023-05-20T19:21:41.764Z,19.20
2023-05-20T19:24:10.629Z,19.18
2023-05-20T19:26:39.417Z,19.23
2023-05-20T19:29:08.367Z,19.18
2023-05-20T19:31:43.137Z,19.07
2023-05-20T19:34:12.535Z,19.21
2023-05-20T19:36:43.025Z,19.16
2023-05-20T19:39:12.226Z,19.13
2023-05-20T19:41:41.815Z,19.07
2023-05-20T19:44:11.009Z,19.09
2023-05-20T19:46:41.284Z,19.03
2023-05-20T19:49:09.893Z,19.22
2023-05-20T19:51:38.965Z,19.12
2023-05-20T19:54:07.494Z,19.03
2023-05-20T19:56:36.014Z,18.95
2023-05-20T19:59:05.058Z,19.00
2023-05-20T20:01:34.034Z,18.87
2023-05-20T20:04:03.708Z,18.86
2023-05-20T20:06:32.813Z,18.88
2023-05-20T20:09:01.614Z,18.78
2023-05-20T20:11:30.593Z,18.80
2023-05-20T20:13:59.702Z,18.75
2023-05-20T20:16:29.545Z,18.79
2023-05-20T20:18:58.540Z,18.84
2023-05-20T20:21:29.061Z,18.74
2023-05-20T20:23:57.523Z,18.70
2023-05-20T20:26:26.977Z,18.65
2023-05-20T20:28:55.537Z,18.60
2023-05-20T20:31:25.441Z,18.64
2023-05-20T20:33:54.229Z,18.65
2023-05-20T20:36:23.040Z,18.69
2023-05-20T20:38:53.852Z,18.68
2023-05-20T20:41:22.558Z,18.67
2023-05-20T20:43:51.940Z,18.53
2023-05-20T20:46:20.678Z,18.47
2023-05-20T20:48:50.431Z,18.30
2023-05-20T20:51:18.737Z,18.32
2023-05-20T20:53:48.978Z,18.36
2023-05-20T20:56:19.030Z,18.34
2023-05-20T20:58:47.620Z,18.35
2023-05-20T21:01:17.834Z,18.26
2023-05-20T21:03:46.573Z,18.06
2023-05-20T21:06:15.410Z,18.31
2023-05-20T21:08:44.237Z,18.26
2023-05-20T21:11:13.686Z,18.16
2023-05-20T21:13:44.437Z,18.18
2023-05-20T21:16:13.168Z,18.07
2023-05-20T21:18:42.231Z,18.09
2023-05-20T21:21:14.078Z,18.07
2023-05-20T21:23:43.409Z,18.02
2023-05-20T21:26:11.918Z,17.81
2023-05-20T21:28:40.685Z,17.94
2023-05-20T21:31:10.926Z,17.90
2023-05-20T21:33:39.827Z,17.95
2023-05-20T21:36:08.704Z,17.92
2023-05-20T21:38:37.204Z,17.86
2023-05-20T21:41:06.120Z,17.88
2023-05-20T21:43:36.188Z,17.87
2023-05-20T21:46:06.755Z,17.74
2023-05-20T21:48:37.062Z,17.70
2023-05-20T21:51:06.036Z,17.67
2023-05-20T21:53:35.455Z,17.70
2023-05-20T21:56:03.965Z,17.69
2023-05-20T21:58:32.741Z,17.70
2023-05-20T22:01:02.475Z,17.56
2023-05-20T22:03:36.452Z,17.58
2023-05-20T22:06:07.485Z,17.60
2023-05-20T22:08:35.994Z,17.48
2023-05-20T22:11:07.657Z,17.48
2023-05-20T22:13:41.891Z,17.51
2023-05-20T22:16:11.958Z,17.41
2023-05-20T22:18:43.459Z,17.32
2023-05-20T22:21:14.094Z,17.21
2023-05-20T22:23:43.807Z,17.45
2023-05-20T22:26:13.087Z,17.41
2023-05-20T22:28:42.290Z,17.46
2023-05-20T22:31:10.811Z,17.37
2023-05-20T22:33:42.962Z,17.38
2023-05-20T22:36:13.236Z,17.33
2023-05-20T22:38:41.959Z,17.31
2023-05-20T22:41:11.190Z,17.27
2023-05-20T22:43:39.578Z,17.35
2023-05-20T22:46:08.338Z,17.20
2023-05-20T22:48:37.499Z,17.16
2023-05-20T22:51:06.746Z,17.07
2023-05-20T22:53:37.097Z,16.98
2023-05-20T22:56:06.097Z,16.87
2023-05-20T22:58:39.785Z,16.90
2023-05-20T23:01:10.566Z,16.81
2023-05-20T23:03:40.408Z,16.76
2023-05-20T23:06:08.919Z,16.93
2023-05-20T23:08:39.161Z,16.89
2023-05-20T23:11:08.823Z,16.86
2023-05-20T23:13:37.652Z,16.66
2023-05-20T23:16:07.878Z,16.89
2023-05-20T23:18:36.612Z,17.04
2023-05-20T23:21:05.398Z,17.14
2023-05-20T23:23:33.711Z,17.05
2023-05-20T23:26:05.434Z,17.22
2023-05-20T23:28:33.964Z,17.26
2023-05-20T23:31:02.474Z,17.16
2023-05-20T23:33:31.023Z,17.22
2023-05-20T23:36:00.696Z,17.18
2023-05-20T23:38:30.715Z,17.04
2023-05-20T23:40:59.187Z,17.23
2023-05-20T23:43:29.058Z,17.21
2023-05-20T23:45:57.519Z,17.11
2023-05-20T23:48:26.708Z,17.23
2023-05-20T23:50:56.619Z,17.30
2023-05-20T23:53:25.811Z,17.33
2023-05-20T23:55:55.430Z,17.22
2023-05-20T23:58:24.032Z,17.17
